createdAt,value
2023-12-09T00:00:33.255Z,0
2023-12-09T00:02:16.964Z,0
2023-12-09T00:04:00.748Z,0
2023-12-09T00:05:44.369Z,0
2023-12-09T00:07:28.070Z,0
2023-12-09T00:09:11.775Z,0
2023-12-09T00:10:55.479Z,0
2023-12-09T00:12:39.197Z,0
2023-12-09T00:14:22.900Z,0
2023-12-09T00:16:06.578Z,0
2023-12-09T00:17:50.279Z,0
2023-12-09T00:19:33.984Z,0
2023-12-09T00:21:17.689Z,1
2023-12-09T00:23:01.378Z,0
2023-12-09T00:24:45.093Z,0
2023-12-09T00:26:28.800Z,1
2023-12-09T00:28:12.502Z,0
2023-12-09T00:29:56.219Z,0
2023-12-09T00:31:39.910Z,0
2023-12-09T00:33:23.602Z,0
2023-12-09T00:35:07.307Z,0
2023-12-09T00:36:51.011Z,0
2023-12-09T00:38:34.704Z,0
2023-12-09T00:40:18.403Z,0
2023-12-09T00:42:02.119Z,0
2023-12-09T00:43:45.812Z,0
2023-12-09T00:45:29.521Z,0
2023-12-09T00:47:13.245Z,0
2023-12-09T00:48:56.921Z,0
2023-12-09T00:50:40.631Z,0
2023-12-09T00:52:24.329Z,0
2023-12-09T00:54:08.024Z,0
2023-12-09T00:55:51.733Z,0
2023-12-09T00:57:35.440Z,0
2023-12-09T00:59:19.152Z,0
2023-12-09T01:01:02.832Z,0
2023-12-09T01:02:46.577Z,0
2023-12-09T01:04:30.249Z,0
2023-12-09T01:06:13.965Z,0
2023-12-09T01:07:57.628Z,0
2023-12-09T01:09:41.343Z,0
2023-12-09T01:11:25.039Z,0
2023-12-09T01:13:08.770Z,0
2023-12-09T01:14:52.455Z,0
2023-12-09T01:16:36.172Z,0
2023-12-09T01:18:19.870Z,0
2023-12-09T01:20:03.573Z,0
2023-12-09T01:21:47.288Z,0
2023-12-09T01:23:30.958Z,0
2023-12-09T01:25:14.673Z,0
2023-12-09T01:26:58.380Z,0
2023-12-09T01:28:42.078Z,0
2023-12-09T01:30:25.783Z,0
2023-12-09T01:32:09.484Z,0
2023-12-09T01:33:53.188Z,0
2023-12-09T01:35:36.895Z,0
2023-12-09T01:37:20.587Z,0
2023-12-09T01:39:04.302Z,0
2023-12-09T01:40:47.995Z,0
2023-12-09T01:42:31.738Z,0
2023-12-09T01:44:15.423Z,0
2023-12-09T01:45:59.089Z,1
2023-12-09T01:47:42.804Z,0
2023-12-09T01:49:26.504Z,0
2023-12-09T01:51:10.236Z,0
2023-12-09T01:52:53.922Z,1
2023-12-09T01:54:37.621Z,0
2023-12-09T01:56:21.334Z,0
2023-12-09T01:58:05.041Z,0
2023-12-09T01:59:48.734Z,0
2023-12-09T02:01:32.424Z,0
2023-12-09T02:03:16.128Z,0
2023-12-09T02:04:59.827Z,0
2023-12-09T02:06:43.539Z,0
2023-12-09T02:08:27.245Z,0
2023-12-09T02:10:10.956Z,0
2023-12-09T02:11:54.654Z,0
2023-12-09T02:13:38.359Z,0
2023-12-09T02:15:22.057Z,0
2023-12-09T02:17:05.748Z,0
2023-12-09T02:18:49.464Z,0
2023-12-09T02:20:33.156Z,0
2023-12-09T02:22:16.870Z,0
2023-12-09T02:24:00.575Z,0
2023-12-09T02:25:44.271Z,0
2023-12-09T02:27:27.964Z,0
2023-12-09T02:29:11.675Z,0
2023-12-09T02:30:55.381Z,0
2023-12-09T02:32:39.075Z,0
2023-12-09T02:34:22.802Z,0
2023-12-09T02:36:06.510Z,0
2023-12-09T02:37:50.214Z,0
2023-12-09T02:39:33.895Z,0
2023-12-09T02:41:17.604Z,0
2023-12-09T02:43:01.305Z,0
2023-12-09T02:44:45.017Z,0
2023-12-09T02:46:28.693Z,0
2023-12-09T02:48:12.402Z,0
2023-12-09T02:49:56.111Z,0
2023-12-09T02:51:39.814Z,0
2023-12-09T02:53:23.504Z,1
2023-12-09T02:55:07.210Z,0
2023-12-09T02:56:50.914Z,0
2023-12-09T02:58:34.604Z,0
2023-12-09T03:00:18.316Z,0
2023-12-09T03:02:02.020Z,0
2023-12-09T03:03:45.713Z,0
2023-12-09T03:07:13.132Z,0
2023-12-09T03:08:56.819Z,0
2023-12-09T03:10:40.538Z,0
2023-12-09T03:12:24.246Z,0
2023-12-09T03:14:07.953Z,0
2023-12-09T03:15:51.627Z,0
2023-12-09T03:17:35.339Z,0
2023-12-09T03:19:19.041Z,0
2023-12-09T03:21:02.737Z,1
2023-12-09T03:22:46.438Z,0
2023-12-09T03:24:30.128Z,1
2023-12-09T03:26:13.847Z,0
2023-12-09T03:27:57.554Z,0
2023-12-09T03:29:41.259Z,0
2023-12-09T03:31:24.937Z,0
2023-12-09T03:33:08.637Z,0
2023-12-09T03:34:52.361Z,0
2023-12-09T03:36:36.083Z,0
2023-12-09T03:38:19.758Z,0
2023-12-09T03:40:03.473Z,0
2023-12-09T03:41:47.178Z,0
2023-12-09T03:43:30.881Z,0
2023-12-09T03:45:14.559Z,0
2023-12-09T03:46:58.263Z,0
2023-12-09T03:48:41.983Z,0
2023-12-09T03:50:25.691Z,0
2023-12-09T03:52:09.388Z,0
2023-12-09T03:53:53.075Z,0
2023-12-09T03:55:36.798Z,1
2023-12-09T03:57:20.491Z,0
2023-12-09T03:59:04.181Z,0
2023-12-09T04:00:47.885Z,0
2023-12-09T04:02:31.605Z,0
2023-12-09T04:05:58.993Z,0
2023-12-09T04:07:42.707Z,0
2023-12-09T04:09:26.398Z,0
2023-12-09T04:11:10.101Z,0
2023-12-09T04:12:53.817Z,0
2023-12-09T04:14:37.514Z,1
2023-12-09T04:16:21.233Z,0
2023-12-09T04:18:04.918Z,0
2023-12-09T04:21:32.340Z,1
2023-12-09T04:23:16.077Z,0
2023-12-09T04:24:59.728Z,0
2023-12-09T04:26:43.443Z,0
2023-12-09T04:28:27.137Z,0
2023-12-09T04:30:10.841Z,0
2023-12-09T04:31:54.540Z,0
2023-12-09T04:33:38.254Z,0
2023-12-09T04:35:21.958Z,0
2023-12-09T04:37:05.654Z,1
2023-12-09T04:38:49.339Z,0
2023-12-09T04:40:33.051Z,0
2023-12-09T04:42:16.740Z,0
2023-12-09T04:44:00.483Z,0
2023-12-09T04:45:44.172Z,0
2023-12-09T04:47:27.859Z,0
2023-12-09T04:49:11.575Z,1
2023-12-09T04:50:55.272Z,0
2023-12-09T04:52:38.979Z,0
2023-12-09T04:54:22.652Z,0
2023-12-09T04:56:06.365Z,0
2023-12-09T04:57:50.073Z,0
2023-12-09T04:59:33.778Z,0
2023-12-09T05:01:17.469Z,0
2023-12-09T05:03:01.202Z,0
2023-12-09T05:04:44.866Z,0
2023-12-09T05:06:28.588Z,0
2023-12-09T05:08:12.283Z,0
2023-12-09T05:09:55.975Z,0
2023-12-09T05:11:39.672Z,1
2023-12-09T05:13:23.373Z,0
2023-12-09T05:15:07.182Z,0
2023-12-09T05:16:50.794Z,0
2023-12-09T05:18:34.495Z,0
2023-12-09T05:20:18.191Z,0
2023-12-09T05:22:01.910Z,0
2023-12-09T05:23:45.598Z,0
2023-12-09T05:25:29.294Z,0
2023-12-09T05:27:12.998Z,0
2023-12-09T05:28:56.687Z,0
2023-12-09T05:30:40.403Z,0
2023-12-09T05:32:24.106Z,0
2023-12-09T05:34:07.813Z,0
2023-12-09T05:35:51.520Z,0
2023-12-09T05:37:35.219Z,0
2023-12-09T05:39:18.914Z,0
2023-12-09T05:41:02.615Z,1
2023-12-09T05:42:46.313Z,0
2023-12-09T05:44:30.013Z,0
2023-12-09T05:46:13.731Z,0
2023-12-09T05:47:57.417Z,0
2023-12-09T05:49:41.134Z,1
2023-12-09T05:51:24.834Z,0
2023-12-09T05:53:08.523Z,0
2023-12-09T05:54:52.236Z,0
2023-12-09T05:56:35.926Z,0
2023-12-09T05:58:19.705Z,0
2023-12-09T06:00:03.353Z,0
2023-12-09T06:01:47.056Z,0
2023-12-09T06:03:30.734Z,0
2023-12-09T06:05:14.452Z,0
2023-12-09T06:06:58.149Z,0
2023-12-09T06:08:41.865Z,0
2023-12-09T06:10:25.562Z,0
2023-12-09T06:12:09.390Z,0
2023-12-09T06:13:52.959Z,0
2023-12-09T06:15:36.666Z,1
2023-12-09T06:17:20.388Z,0
2023-12-09T06:19:04.069Z,0
2023-12-09T06:20:47.775Z,0
2023-12-09T06:22:31.463Z,0
2023-12-09T06:24:15.175Z,0
2023-12-09T06:25:58.866Z,0
2023-12-09T06:27:42.569Z,0
2023-12-09T06:29:26.287Z,0
2023-12-09T06:31:09.987Z,0
2023-12-09T06:32:53.691Z,1
2023-12-09T06:34:37.378Z,0
2023-12-09T06:36:21.079Z,0
2023-12-09T06:38:04.777Z,0
2023-12-09T06:39:48.501Z,0
2023-12-09T06:41:32.184Z,1
2023-12-09T06:43:15.892Z,0
2023-12-09T06:44:59.608Z,0
2023-12-09T06:46:43.301Z,0
2023-12-09T06:48:27.012Z,1
2023-12-09T06:50:10.702Z,1
2023-12-09T06:51:54.418Z,1
2023-12-09T06:53:38.095Z,2
2023-12-09T06:55:21.829Z,3
2023-12-09T06:57:05.509Z,6
2023-12-09T06:58:49.212Z,5
2023-12-09T07:00:32.915Z,8
2023-12-09T07:02:16.625Z,10
2023-12-09T07:04:00.339Z,11
2023-12-09T07:05:44.015Z,12
2023-12-09T07:07:27.717Z,16
2023-12-09T07:09:11.430Z,19
2023-12-09T07:10:55.209Z,21
2023-12-09T07:12:38.823Z,22
2023-12-09T07:14:22.528Z,72
2023-12-09T07:16:06.231Z,73
2023-12-09T07:17:49.962Z,71
2023-12-09T07:19:33.632Z,68
2023-12-09T07:21:17.339Z,63
2023-12-09T07:24:44.749Z,58
2023-12-09T07:26:28.459Z,59
2023-12-09T07:28:12.155Z,59
2023-12-09T07:29:55.826Z,59
2023-12-09T07:31:39.557Z,60
2023-12-09T07:33:23.260Z,156
2023-12-09T07:35:06.958Z,162
2023-12-09T07:38:34.361Z,163
2023-12-09T07:40:18.074Z,159
2023-12-09T07:42:01.774Z,173
2023-12-09T07:43:45.470Z,196
2023-12-09T07:45:29.167Z,196
2023-12-09T07:47:12.872Z,197
2023-12-09T07:48:56.574Z,206
2023-12-09T07:50:40.275Z,215
2023-12-09T07:54:07.680Z,333
2023-12-09T07:55:51.388Z,413
2023-12-09T07:57:35.092Z,474
2023-12-09T07:59:18.788Z,466
2023-12-09T08:01:02.495Z,396
2023-12-09T08:02:46.189Z,363
2023-12-09T08:04:29.900Z,366
2023-12-09T08:06:13.575Z,383
2023-12-09T08:07:57.287Z,411
2023-12-09T08:09:41.003Z,436
2023-12-09T08:11:24.697Z,521
2023-12-09T08:13:08.418Z,643
2023-12-09T08:14:52.115Z,598
2023-12-09T08:16:35.807Z,574
2023-12-09T08:18:19.519Z,494
2023-12-09T08:20:03.247Z,570
2023-12-09T08:21:46.904Z,652
2023-12-09T08:23:30.612Z,659
2023-12-09T08:25:14.315Z,650
2023-12-09T08:26:58.021Z,666
2023-12-09T08:28:41.716Z,682
2023-12-09T08:30:25.416Z,699
2023-12-09T08:32:09.129Z,773
2023-12-09T08:33:52.833Z,775
2023-12-09T08:35:36.528Z,774
2023-12-09T08:37:20.234Z,776
2023-12-09T08:39:03.928Z,775
2023-12-09T08:40:47.673Z,775
2023-12-09T08:42:31.357Z,692
2023-12-09T08:44:15.023Z,743
2023-12-09T08:45:58.743Z,775
2023-12-09T08:47:42.449Z,776
2023-12-09T08:49:26.152Z,775
2023-12-09T08:51:09.843Z,776
2023-12-09T08:52:53.540Z,776
2023-12-09T08:54:37.240Z,775
2023-12-09T08:56:20.943Z,776
2023-12-09T08:58:04.692Z,775
2023-12-09T08:59:48.373Z,775
2023-12-09T09:01:32.053Z,776
2023-12-09T09:03:15.768Z,775
2023-12-09T09:04:59.462Z,776
2023-12-09T09:06:43.175Z,775
2023-12-09T09:08:26.860Z,776
2023-12-09T09:10:10.577Z,776
2023-12-09T09:11:54.265Z,775
2023-12-09T09:13:37.957Z,775
2023-12-09T09:15:21.672Z,776
2023-12-09T09:17:05.469Z,776
2023-12-09T09:18:49.085Z,775
2023-12-09T09:20:32.791Z,776
2023-12-09T09:22:16.461Z,775
2023-12-09T09:24:00.191Z,775
2023-12-09T09:25:43.896Z,775
2023-12-09T09:27:27.598Z,776
2023-12-09T09:29:11.280Z,776
2023-12-09T09:30:54.988Z,776
2023-12-09T09:32:38.710Z,776
2023-12-09T09:34:22.407Z,776
2023-12-09T09:36:06.106Z,775
2023-12-09T09:37:49.790Z,776
2023-12-09T09:39:33.483Z,776
2023-12-09T09:41:17.194Z,776
2023-12-09T09:43:00.923Z,775
2023-12-09T09:44:44.602Z,776
2023-12-09T09:46:28.297Z,776
2023-12-09T09:48:12.061Z,775
2023-12-09T09:49:55.732Z,776
2023-12-09T09:51:39.527Z,773
2023-12-09T09:53:23.137Z,776
2023-12-09T09:55:06.810Z,772
2023-12-09T09:56:50.540Z,755
2023-12-09T09:58:34.228Z,774
2023-12-09T10:00:17.921Z,776
2023-12-09T10:02:01.615Z,776
2023-12-09T10:03:45.410Z,775
2023-12-09T10:05:29.142Z,775
2023-12-09T10:07:12.706Z,778
2023-12-09T10:08:56.421Z,776
2023-12-09T10:10:40.190Z,777
2023-12-09T10:12:23.834Z,776
2023-12-09T10:14:07.529Z,749
2023-12-09T10:15:51.247Z,738
2023-12-09T10:17:34.939Z,766
2023-12-09T10:19:18.709Z,731
2023-12-09T10:21:02.344Z,691
2023-12-09T10:22:46.053Z,737
2023-12-09T10:24:29.731Z,776
2023-12-09T10:26:13.460Z,776
2023-12-09T10:27:57.169Z,777
2023-12-09T10:29:40.850Z,776
2023-12-09T10:31:24.550Z,776
2023-12-09T10:33:08.243Z,775
2023-12-09T10:34:51.945Z,776
2023-12-09T10:36:35.641Z,776
2023-12-09T10:38:19.338Z,776
2023-12-09T10:40:03.080Z,776
2023-12-09T10:41:46.773Z,776
2023-12-09T10:43:30.459Z,774
2023-12-09T10:45:14.172Z,775
2023-12-09T10:46:57.871Z,776
2023-12-09T10:48:41.596Z,776
2023-12-09T10:50:25.280Z,776
2023-12-09T10:52:09.134Z,776
2023-12-09T10:53:52.671Z,776
2023-12-09T10:55:36.456Z,776
2023-12-09T10:57:20.075Z,776
2023-12-09T10:59:03.798Z,776
2023-12-09T11:00:47.497Z,776
2023-12-09T11:02:31.181Z,776
2023-12-09T11:04:14.872Z,776
2023-12-09T11:05:58.603Z,773
2023-12-09T11:07:42.275Z,776
2023-12-09T11:09:26.045Z,774
2023-12-09T11:11:09.695Z,775
2023-12-09T11:12:53.401Z,775
2023-12-09T11:14:37.086Z,776
2023-12-09T11:16:20.797Z,775
2023-12-09T11:18:04.490Z,775
2023-12-09T11:19:48.189Z,776
2023-12-09T11:21:31.889Z,776
2023-12-09T11:23:15.613Z,776
2023-12-09T11:24:59.325Z,776
2023-12-09T11:26:43.007Z,776
2023-12-09T11:28:26.726Z,774
2023-12-09T11:30:10.411Z,777
2023-12-09T11:31:54.107Z,777
2023-12-09T11:33:37.820Z,776
2023-12-09T11:35:21.521Z,777
2023-12-09T11:37:05.228Z,776
2023-12-09T11:38:48.923Z,776
2023-12-09T11:40:32.622Z,776
2023-12-09T11:42:16.312Z,776
2023-12-09T11:44:00.024Z,776
2023-12-09T11:45:43.723Z,775
2023-12-09T11:47:27.497Z,776
2023-12-09T11:49:11.137Z,776
2023-12-09T11:50:54.838Z,773
2023-12-09T11:52:38.537Z,776
2023-12-09T11:54:22.260Z,776
2023-12-09T11:56:05.948Z,777
2023-12-09T11:57:49.646Z,776
2023-12-09T11:59:33.332Z,776
2023-12-09T12:01:17.040Z,776
2023-12-09T12:03:00.741Z,776
2023-12-09T12:04:44.461Z,776
2023-12-09T12:06:28.153Z,777
2023-12-09T12:08:11.848Z,776
2023-12-09T12:09:55.555Z,776
2023-12-09T12:11:39.249Z,776
2023-12-09T12:13:22.967Z,774
2023-12-09T12:15:06.661Z,776
2023-12-09T12:16:50.375Z,776
2023-12-09T12:18:34.087Z,776
2023-12-09T12:20:17.803Z,776
2023-12-09T12:22:01.467Z,777
2023-12-09T12:23:45.230Z,776
2023-12-09T12:25:28.868Z,777
2023-12-09T12:27:12.576Z,776
2023-12-09T12:28:56.260Z,779
2023-12-09T12:30:39.966Z,776
2023-12-09T12:32:23.719Z,776
2023-12-09T12:34:07.367Z,777
2023-12-09T12:36:04.037Z,774
2023-12-09T12:37:34.789Z,776
2023-12-09T12:39:18.504Z,776
2023-12-09T12:41:02.182Z,776
2023-12-09T12:42:45.886Z,776
2023-12-09T12:44:29.587Z,777
2023-12-09T12:46:13.288Z,777
2023-12-09T12:47:57.044Z,776
2023-12-09T12:49:40.719Z,776
2023-12-09T12:51:24.399Z,776
2023-12-09T12:53:08.109Z,776
2023-12-09T12:54:51.807Z,776
2023-12-09T12:56:35.503Z,775
2023-12-09T12:58:19.206Z,775
2023-12-09T13:00:02.904Z,776
2023-12-09T13:01:46.590Z,776
2023-12-09T13:03:30.310Z,776
2023-12-09T13:05:14.015Z,776
2023-12-09T13:06:57.695Z,776
2023-12-09T13:08:41.417Z,776
2023-12-09T13:10:25.118Z,776
2023-12-09T13:12:08.811Z,776
2023-12-09T13:13:52.510Z,776
2023-12-09T13:15:36.223Z,776
2023-12-09T13:17:19.959Z,776
2023-12-09T13:19:03.704Z,776
2023-12-09T13:20:47.332Z,773
2023-12-09T13:22:31.040Z,776
2023-12-09T13:24:14.731Z,754
2023-12-09T13:25:58.493Z,709
2023-12-09T13:27:42.132Z,678
2023-12-09T13:29:25.828Z,688
2023-12-09T13:31:09.533Z,754
2023-12-09T13:32:53.237Z,776
2023-12-09T13:34:36.952Z,768
2023-12-09T13:36:20.772Z,712
2023-12-09T13:38:04.341Z,668
2023-12-09T13:39:48.033Z,650
2023-12-09T13:41:31.748Z,653
2023-12-09T13:43:15.466Z,616
2023-12-09T13:44:59.180Z,589
2023-12-09T13:46:42.850Z,586
2023-12-09T13:48:26.573Z,591
2023-12-09T13:50:10.262Z,578
2023-12-09T13:51:53.953Z,525
2023-12-09T13:53:37.667Z,483
2023-12-09T13:55:21.366Z,461
2023-12-09T13:57:05.062Z,458
2023-12-09T13:58:48.750Z,437
2023-12-09T14:00:32.465Z,414
2023-12-09T14:02:16.211Z,360
2023-12-09T14:03:59.894Z,302
2023-12-09T14:05:43.591Z,271
2023-12-09T14:07:27.285Z,251
2023-12-09T14:09:10.990Z,221
2023-12-09T14:10:54.666Z,197
2023-12-09T14:12:38.384Z,193
2023-12-09T14:14:22.075Z,188
2023-12-09T14:16:05.935Z,169
2023-12-09T14:17:49.490Z,155
2023-12-09T14:19:33.189Z,151
2023-12-09T14:21:16.895Z,160
2023-12-09T14:23:00.578Z,164
2023-12-09T14:24:44.308Z,148
2023-12-09T14:26:28.016Z,125
2023-12-09T14:28:11.710Z,98
2023-12-09T14:29:55.371Z,82
2023-12-09T14:31:39.077Z,83
2023-12-09T14:33:22.796Z,101
2023-12-09T14:35:06.505Z,126
2023-12-09T14:36:50.237Z,190
2023-12-09T14:38:33.904Z,301
2023-12-09T14:40:17.610Z,497
2023-12-09T14:42:01.296Z,588
2023-12-09T14:43:45.031Z,568
2023-12-09T14:45:28.710Z,496
2023-12-09T14:47:12.400Z,431
2023-12-09T14:48:56.129Z,380
2023-12-09T14:50:39.818Z,345
2023-12-09T14:52:23.529Z,305
2023-12-09T14:54:07.217Z,262
2023-12-09T14:55:50.942Z,248
2023-12-09T14:57:34.630Z,239
2023-12-09T14:59:18.353Z,225
2023-12-09T15:01:02.031Z,190
2023-12-09T15:02:45.720Z,137
2023-12-09T15:04:29.447Z,87
2023-12-09T15:06:13.307Z,62
2023-12-09T15:07:56.869Z,54
2023-12-09T15:09:40.730Z,52
2023-12-09T15:11:24.235Z,45
2023-12-09T15:13:08.167Z,40
2023-12-09T15:14:51.638Z,37
2023-12-09T15:16:35.371Z,31
2023-12-09T15:18:19.050Z,27
2023-12-09T15:20:02.769Z,25
2023-12-09T15:21:46.488Z,20
2023-12-09T15:23:30.249Z,21
2023-12-09T15:25:13.900Z,21
2023-12-09T15:26:57.568Z,19
2023-12-09T15:28:41.259Z,14
2023-12-09T15:30:24.964Z,11
2023-12-09T15:32:08.652Z,9
2023-12-09T15:33:52.489Z,8
2023-12-09T15:35:36.070Z,6
2023-12-09T15:37:19.774Z,5
2023-12-09T15:39:03.557Z,5
2023-12-09T15:40:47.156Z,4
2023-12-09T15:42:30.857Z,4
2023-12-09T15:44:14.592Z,2
2023-12-09T15:45:58.265Z,2
2023-12-09T15:47:41.987Z,2
2023-12-09T15:49:25.672Z,1
2023-12-09T15:51:09.378Z,1
2023-12-09T15:52:53.257Z,1
2023-12-09T15:54:36.827Z,1
2023-12-09T15:56:20.618Z,0
2023-12-09T15:58:04.223Z,1
2023-12-09T15:59:47.910Z,0
2023-12-09T16:01:31.591Z,0
2023-12-09T16:03:15.307Z,0
2023-12-09T16:04:58.997Z,0
2023-12-09T16:06:42.698Z,0
2023-12-09T16:08:26.422Z,0
2023-12-09T16:10:10.120Z,0
2023-12-09T16:11:53.807Z,0
2023-12-09T16:13:37.499Z,1
2023-12-09T16:15:21.240Z,42
2023-12-09T16:17:04.899Z,42
2023-12-09T16:18:48.608Z,41
2023-12-09T16:20:32.312Z,40
2023-12-09T16:22:16.183Z,41
2023-12-09T16:23:59.747Z,41
2023-12-09T16:25:43.432Z,41
2023-12-09T16:27:27.121Z,41
2023-12-09T16:29:10.827Z,40
2023-12-09T16:30:54.553Z,40
2023-12-09T16:32:38.254Z,40
2023-12-09T16:34:22.112Z,41
2023-12-09T16:36:05.673Z,41
2023-12-09T16:37:49.346Z,41
2023-12-09T16:39:33.055Z,41
2023-12-09T16:41:16.730Z,41
2023-12-09T16:43:00.583Z,67
2023-12-09T16:44:44.313Z,70
2023-12-09T16:46:27.945Z,70
2023-12-09T16:48:11.555Z,41
2023-12-09T16:49:55.256Z,42
2023-12-09T16:51:38.972Z,42
2023-12-09T16:53:22.658Z,42
2023-12-09T16:55:06.374Z,42
2023-12-09T16:56:50.049Z,42
2023-12-09T16:58:33.774Z,42
2023-12-09T17:00:17.493Z,43
2023-12-09T17:02:01.176Z,42
2023-12-09T17:03:44.974Z,42
2023-12-09T17:05:28.580Z,42
2023-12-09T17:07:12.262Z,42
2023-12-09T17:08:55.988Z,42
2023-12-09T17:10:39.687Z,666
2023-12-09T17:12:23.532Z,587
2023-12-09T17:14:07.070Z,623
2023-12-09T17:15:50.801Z,612
2023-12-09T17:19:18.181Z,621
2023-12-09T17:21:01.979Z,775
2023-12-09T17:22:45.583Z,775
2023-12-09T17:24:29.350Z,775
2023-12-09T17:26:13.043Z,775
2023-12-09T17:27:56.695Z,776
2023-12-09T17:29:40.403Z,775
2023-12-09T17:31:24.140Z,776
2023-12-09T17:33:07.799Z,775
2023-12-09T17:34:51.514Z,774
2023-12-09T17:36:35.224Z,775
2023-12-09T17:38:18.893Z,774
2023-12-09T17:40:02.626Z,775
2023-12-09T17:41:46.297Z,614
2023-12-09T17:43:30.015Z,710
2023-12-09T17:45:13.710Z,645
2023-12-09T17:46:57.412Z,768
2023-12-09T17:48:41.125Z,583
2023-12-09T17:50:24.823Z,776
2023-12-09T17:52:08.569Z,548
2023-12-09T17:53:52.253Z,775
2023-12-09T17:55:35.947Z,775
2023-12-09T17:57:19.620Z,775
2023-12-09T17:59:03.344Z,412
2023-12-09T18:00:47.184Z,441
2023-12-09T18:02:30.796Z,480
2023-12-09T18:04:14.443Z,408
2023-12-09T18:05:58.161Z,412
2023-12-09T18:07:41.820Z,487
2023-12-09T18:09:25.576Z,372
2023-12-09T18:11:09.238Z,389
2023-12-09T18:12:53.046Z,393
2023-12-09T18:14:36.622Z,377
2023-12-09T18:16:20.334Z,602
2023-12-09T18:18:04.046Z,375
2023-12-09T18:19:47.744Z,351
2023-12-09T18:21:31.449Z,330
2023-12-09T18:23:15.126Z,774
2023-12-09T18:24:58.968Z,566
2023-12-09T18:26:42.534Z,776
2023-12-09T18:28:26.252Z,776
2023-12-09T18:30:09.953Z,683
2023-12-09T18:31:53.640Z,405
2023-12-09T18:33:37.382Z,657
2023-12-09T18:35:21.050Z,673
2023-12-09T18:37:04.768Z,726
2023-12-09T18:38:48.446Z,776
2023-12-09T18:40:32.151Z,776
2023-12-09T18:42:15.843Z,775
2023-12-09T18:43:59.582Z,776
2023-12-09T18:45:43.258Z,776
2023-12-09T18:47:27.037Z,775
2023-12-09T18:49:10.774Z,776
2023-12-09T18:50:54.390Z,613
2023-12-09T18:52:38.072Z,770
2023-12-09T18:54:21.839Z,772
2023-12-09T18:56:05.480Z,776
2023-12-09T18:57:49.178Z,776
2023-12-09T18:59:32.879Z,776
2023-12-09T19:01:16.663Z,774
2023-12-09T19:03:00.308Z,776
2023-12-09T19:04:44.050Z,776
2023-12-09T19:06:27.707Z,776
2023-12-09T19:08:11.472Z,774
2023-12-09T19:09:55.095Z,776
2023-12-09T19:11:38.792Z,775
2023-12-09T19:13:22.549Z,775
2023-12-09T19:15:06.304Z,775
2023-12-09T19:16:49.919Z,776
2023-12-09T19:18:33.616Z,776
2023-12-09T19:20:17.361Z,775
2023-12-09T19:22:01.032Z,775
2023-12-09T19:23:44.747Z,776
2023-12-09T19:25:28.464Z,775
2023-12-09T19:27:12.121Z,776
2023-12-09T19:28:55.842Z,775
2023-12-09T19:30:39.537Z,776
2023-12-09T19:32:23.264Z,774
2023-12-09T19:34:06.943Z,776
2023-12-09T19:35:50.668Z,130
2023-12-09T19:37:34.335Z,41
2023-12-09T19:39:18.048Z,40
2023-12-09T19:41:01.770Z,41
2023-12-09T19:42:45.444Z,60
2023-12-09T19:44:29.230Z,61
2023-12-09T19:46:12.855Z,61
2023-12-09T19:47:56.715Z,60
2023-12-09T19:49:40.269Z,65
2023-12-09T19:51:24.047Z,56
2023-12-09T19:53:07.667Z,57
2023-12-09T19:54:51.456Z,56
2023-12-09T19:56:35.306Z,56
2023-12-09T19:58:18.796Z,61
2023-12-09T20:00:02.515Z,55
2023-12-09T20:01:46.241Z,57
2023-12-09T20:03:29.890Z,64
2023-12-09T20:05:13.698Z,61
2023-12-09T20:06:57.296Z,61
2023-12-09T20:08:40.992Z,60
2023-12-09T20:10:24.723Z,60
2023-12-09T20:12:08.435Z,59
2023-12-09T20:13:52.151Z,60
2023-12-09T20:15:35.869Z,69
2023-12-09T20:17:19.494Z,69
2023-12-09T20:19:03.179Z,69
2023-12-09T20:20:46.899Z,42
2023-12-09T20:22:30.643Z,42
2023-12-09T20:24:14.345Z,42
2023-12-09T20:25:58.014Z,42
2023-12-09T20:27:41.783Z,42
2023-12-09T20:29:25.503Z,43
2023-12-09T20:31:09.113Z,42
2023-12-09T20:32:52.871Z,43
2023-12-09T20:34:36.523Z,43
2023-12-09T20:36:20.297Z,43
2023-12-09T20:38:03.932Z,43
2023-12-09T20:39:47.625Z,42
2023-12-09T20:41:31.386Z,43
2023-12-09T20:43:15.055Z,43
2023-12-09T20:44:58.743Z,43
2023-12-09T20:46:42.453Z,44
2023-12-09T20:48:26.139Z,42
2023-12-09T20:50:09.847Z,42
2023-12-09T20:51:53.603Z,42
2023-12-09T20:53:37.242Z,43
2023-12-09T20:55:21.039Z,43
2023-12-09T20:57:04.665Z,43
2023-12-09T20:58:48.367Z,43
2023-12-09T21:00:32.074Z,42
2023-12-09T21:02:15.777Z,43
2023-12-09T21:03:59.471Z,43
2023-12-09T21:05:43.175Z,42
2023-12-09T21:07:26.856Z,43
2023-12-09T21:09:10.568Z,42
2023-12-09T21:10:54.281Z,43
2023-12-09T21:12:38.025Z,42
2023-12-09T21:14:21.656Z,42
2023-12-09T21:16:05.405Z,42
2023-12-09T21:17:49.118Z,42
2023-12-09T21:19:32.857Z,42
2023-12-09T21:21:16.503Z,43
2023-12-09T21:23:00.228Z,43
2023-12-09T21:24:43.999Z,43
2023-12-09T21:26:27.682Z,42
2023-12-09T21:28:11.307Z,44
2023-12-09T21:29:54.987Z,44
2023-12-09T21:31:38.748Z,43
2023-12-09T21:33:22.404Z,42
2023-12-09T21:35:06.149Z,42
2023-12-09T21:36:49.831Z,43
2023-12-09T21:38:33.560Z,44
2023-12-09T21:40:17.219Z,42
2023-12-09T21:42:00.919Z,43
2023-12-09T21:43:44.743Z,43
2023-12-09T21:45:28.356Z,43
2023-12-09T21:47:12.006Z,43
2023-12-09T21:48:55.743Z,43
2023-12-09T21:50:39.435Z,43
2023-12-09T21:52:23.375Z,42
2023-12-09T21:54:06.812Z,134
2023-12-09T21:55:50.510Z,43
2023-12-09T21:57:34.219Z,44
2023-12-09T21:59:17.956Z,44
2023-12-09T22:01:01.674Z,42
2023-12-09T22:02:45.333Z,43
2023-12-09T22:04:29.044Z,43
2023-12-09T22:06:12.745Z,43
2023-12-09T22:07:56.470Z,43
2023-12-09T22:09:40.164Z,135
2023-12-09T22:11:23.852Z,134
2023-12-09T22:13:07.647Z,43
2023-12-09T22:14:51.267Z,43
2023-12-09T22:16:34.959Z,3
2023-12-09T22:18:18.652Z,3
2023-12-09T22:20:02.474Z,2
2023-12-09T22:21:46.065Z,3
2023-12-09T22:23:30.009Z,3
2023-12-09T22:25:13.467Z,2
2023-12-09T22:26:57.363Z,3
2023-12-09T22:28:40.933Z,3
2023-12-09T22:30:24.574Z,3
2023-12-09T22:32:08.283Z,3
2023-12-09T22:33:52.241Z,3
2023-12-09T22:35:35.827Z,2
2023-12-09T22:37:19.384Z,3
2023-12-09T22:39:03.110Z,2
2023-12-09T22:40:46.882Z,2
2023-12-09T22:42:30.715Z,3
2023-12-09T22:44:14.355Z,3
2023-12-09T22:45:57.945Z,3
2023-12-09T22:47:41.779Z,3
2023-12-09T22:49:25.301Z,3
2023-12-09T22:51:09.005Z,3
2023-12-09T22:52:52.778Z,3
2023-12-09T22:54:36.422Z,3
2023-12-09T22:56:20.121Z,3
2023-12-09T22:58:03.860Z,2
2023-12-09T22:59:47.509Z,3
2023-12-09T23:01:31.323Z,3
2023-12-09T23:03:14.934Z,3
2023-12-09T23:04:58.651Z,3
2023-12-09T23:06:42.410Z,2
2023-12-09T23:08:26.031Z,2
2023-12-09T23:10:09.740Z,3
2023-12-09T23:11:53.438Z,3
2023-12-09T23:13:37.132Z,3
2023-12-09T23:15:20.838Z,93
2023-12-09T23:17:04.573Z,90
2023-12-09T23:18:48.253Z,93
2023-12-09T23:20:31.936Z,95
2023-12-09T23:22:15.655Z,91
2023-12-09T23:23:59.402Z,1
2023-12-09T23:25:43.167Z,1
2023-12-09T23:27:26.770Z,0
2023-12-09T23:29:10.464Z,1
2023-12-09T23:30:54.167Z,1
2023-12-09T23:32:37.951Z,0
2023-12-09T23:34:21.573Z,1
2023-12-09T23:36:05.271Z,1
2023-12-09T23:37:48.948Z,1
2023-12-09T23:39:32.654Z,1
2023-12-09T23:41:16.369Z,1
2023-12-09T23:43:00.083Z,1
2023-12-09T23:44:43.793Z,1
2023-12-09T23:46:27.467Z,0
2023-12-09T23:48:11.186Z,1
2023-12-09T23:49:54.952Z,1
2023-12-09T23:51:38.593Z,1
2023-12-09T23:53:22.302Z,1
2023-12-09T23:55:06.024Z,0
2023-12-09T23:56:49.714Z,0
2023-12-09T23:58:33.414Z,1
